createdAt,value
2022-08-16T00:00:38.671Z,7.30
2022-08-16T00:03:13.605Z,6.70
2022-08-16T00:05:48.486Z,7.20
2022-08-16T00:08:35.919Z,6.40
2022-08-16T00:11:08.601Z,6.50
2022-08-16T00:13:53.877Z,6.70
2022-08-16T00:17:00.515Z,7.10
2022-08-16T00:19:19.544Z,6.90
2022-08-16T00:21:56.064Z,7.20
2022-08-16T00:24:32.544Z,6.10
2022-08-16T00:27:04.576Z,6.40
2022-08-16T00:29:33.496Z,5.80
2022-08-16T00:32:06.898Z,6.00
2022-08-16T00:34:45.225Z,6.90
2022-08-16T00:37:57.783Z,6.50
2022-08-16T00:40:34.467Z,6.70
2022-08-16T00:43:12.178Z,6.60
2022-08-16T00:45:58.539Z,6.00
2022-08-16T00:48:43.718Z,6.00
2022-08-16T00:51:15.997Z,6.60
2022-08-16T00:53:48.132Z,6.30
2022-08-16T00:56:57.131Z,6.20
2022-08-16T01:02:30.525Z,6.60
2022-08-16T01:05:11.333Z,6.30
2022-08-16T01:07:52.187Z,5.80
2022-08-16T01:10:31.334Z,6.40
2022-08-16T01:13:08.235Z,6.10
2022-08-16T01:15:48.355Z,6.30
2022-08-16T01:18:39.097Z,6.70
2022-08-16T01:21:08.570Z,6.80
2022-08-16T01:24:02.303Z,6.50
2022-08-16T01:26:35.569Z,6.30
2022-08-16T01:29:11.206Z,6.90
2022-08-16T01:31:42.822Z,6.20
2022-08-16T01:34:22.718Z,6.30
2022-08-16T01:37:00.026Z,6.40
2022-08-16T01:39:35.554Z,7.10
2022-08-16T01:42:13.066Z,6.80
2022-08-16T01:44:43.482Z,6.00
2022-08-16T01:47:13.685Z,5.90
2022-08-16T01:50:42.937Z,6.00
2022-08-16T01:55:19.197Z,6.80
2022-08-16T01:57:53.362Z,6.50
2022-08-16T02:00:29.338Z,6.50
2022-08-16T02:03:00.173Z,6.50
2022-08-16T02:05:30.548Z,5.70
2022-08-16T02:08:02.789Z,5.90
2022-08-16T02:10:54.997Z,5.80
2022-08-16T02:13:27.704Z,6.40
2022-08-16T02:15:57.538Z,6.80
2022-08-16T02:18:26.715Z,5.60
2022-08-16T02:20:55.561Z,5.90
2022-08-16T02:23:24.582Z,6.20
2022-08-16T02:25:54.653Z,6.00
2022-08-16T02:28:25.639Z,5.80
2022-08-16T02:30:58.438Z,6.10
2022-08-16T02:33:42.779Z,6.30
2022-08-16T02:36:47.335Z,6.60
2022-08-16T02:39:15.193Z,6.70
2022-08-16T02:41:53.160Z,7.30
2022-08-16T02:44:27.057Z,6.40
2022-08-16T02:46:57.747Z,6.10
2022-08-16T02:49:58.647Z,6.60
2022-08-16T02:52:29.488Z,6.70
2022-08-16T02:55:05.209Z,6.30
2022-08-16T02:57:34.987Z,5.90
2022-08-16T03:02:59.711Z,6.30
2022-08-16T03:08:01.791Z,6.20
2022-08-16T03:13:12.132Z,5.90
2022-08-16T03:15:42.869Z,5.90
2022-08-16T03:18:34.824Z,6.30
2022-08-16T03:21:02.226Z,5.90
2022-08-16T03:23:35.818Z,6.90
2022-08-16T03:26:05.237Z,6.90
2022-08-16T03:28:34.340Z,6.40
2022-08-16T03:31:03.290Z,6.60
2022-08-16T03:33:33.206Z,6.60
2022-08-16T03:36:29.924Z,6.40
2022-08-16T03:38:58.237Z,6.30
2022-08-16T03:41:29.610Z,6.50
2022-08-16T03:44:44.269Z,7.10
2022-08-16T03:47:10.269Z,6.30
2022-08-16T03:49:39.425Z,6.50
2022-08-16T03:52:09.931Z,6.60
2022-08-16T03:57:22.828Z,6.90
2022-08-16T03:59:51.837Z,7.30
2022-08-16T04:02:22.498Z,6.70
2022-08-16T04:05:00.761Z,7.00
2022-08-16T04:07:33.454Z,6.50
2022-08-16T04:10:36.225Z,6.70
2022-08-16T04:13:00.613Z,6.80
2022-08-16T04:15:35.121Z,7.40
2022-08-16T04:18:13.893Z,11.60
2022-08-16T04:20:44.801Z,6.60
2022-08-16T04:23:16.449Z,7.80
2022-08-16T04:25:46.989Z,6.20
2022-08-16T04:28:51.688Z,6.30
2022-08-16T04:31:07.315Z,7.70
2022-08-16T04:33:51.293Z,7.00
2022-08-16T04:36:23.163Z,6.90
2022-08-16T04:38:53.158Z,6.80
2022-08-16T04:41:32.305Z,6.60
2022-08-16T04:44:02.386Z,7.00
2022-08-16T04:47:02.639Z,7.20
2022-08-16T04:49:38.711Z,7.30
2022-08-16T04:52:35.104Z,7.70
2022-08-16T04:55:12.176Z,7.40
2022-08-16T04:57:42.326Z,9.40
2022-08-16T05:00:31.089Z,7.50
2022-08-16T05:03:10.648Z,7.70
2022-08-16T05:06:04.835Z,7.80
2022-08-16T05:08:35.028Z,7.00
2022-08-16T05:11:09.957Z,6.90
2022-08-16T05:13:43.869Z,6.70
2022-08-16T05:16:25.003Z,7.50
2022-08-16T05:19:02.949Z,6.90
2022-08-16T05:21:38.006Z,7.20
2022-08-16T05:24:09.848Z,7.00
2022-08-16T05:29:21.275Z,7.50
2022-08-16T05:32:02.345Z,6.80
2022-08-16T05:34:31.525Z,5.80
2022-08-16T05:37:00.979Z,7.00
2022-08-16T05:39:40.678Z,5.90
2022-08-16T05:42:09.920Z,6.50
2022-08-16T05:44:40.445Z,6.20
2022-08-16T05:47:15.110Z,7.00
2022-08-16T05:49:44.637Z,6.30
2022-08-16T05:52:20.830Z,6.50
2022-08-16T05:55:01.279Z,6.60
2022-08-16T05:57:35.589Z,6.50
2022-08-16T06:00:12.014Z,7.20
2022-08-16T06:02:46.894Z,5.70
2022-08-16T06:05:41.587Z,5.80
2022-08-16T06:08:11.309Z,6.40
2022-08-16T06:11:09.598Z,7.30
2022-08-16T06:13:42.279Z,6.30
2022-08-16T06:16:18.078Z,6.10
2022-08-16T06:18:51.451Z,5.50
2022-08-16T06:21:22.596Z,5.60
2022-08-16T06:23:54.746Z,5.40
2022-08-16T06:26:24.463Z,5.50
2022-08-16T06:29:07.842Z,5.00
2022-08-16T06:31:46.561Z,5.50
2022-08-16T06:34:53.170Z,5.10
2022-08-16T06:39:49.783Z,4.90
2022-08-16T06:42:55.337Z,5.20
2022-08-16T06:45:43.335Z,5.10
2022-08-16T06:48:32.974Z,4.60
2022-08-16T06:51:09.121Z,5.20
2022-08-16T06:53:39.269Z,4.50
2022-08-16T06:56:14.206Z,4.30
2022-08-16T06:58:59.923Z,4.20
2022-08-16T07:01:45.151Z,4.90
2022-08-16T07:04:32.395Z,5.30
2022-08-16T07:07:06.174Z,4.50
2022-08-16T07:09:39.395Z,4.90
2022-08-16T07:12:09.266Z,6.30
2022-08-16T07:14:43.029Z,6.00
2022-08-16T07:17:13.264Z,4.90
2022-08-16T07:20:29.825Z,5.80
2022-08-16T07:22:52.367Z,4.80
2022-08-16T07:25:31.316Z,5.20
2022-08-16T07:28:02.377Z,4.80
2022-08-16T07:30:39.101Z,5.00
2022-08-16T07:33:55.727Z,6.00
2022-08-16T07:36:57.927Z,4.80
2022-08-16T07:39:43.481Z,5.00
2022-08-16T07:42:35.337Z,5.20
2022-08-16T07:45:43.051Z,5.40
2022-08-16T07:48:21.608Z,4.90
2022-08-16T07:50:59.591Z,5.20
2022-08-16T07:53:31.744Z,5.10
2022-08-16T07:56:01.271Z,5.40
2022-08-16T07:58:37.962Z,4.70
2022-08-16T08:01:12.864Z,5.20
2022-08-16T08:03:52.893Z,4.20
2022-08-16T08:06:29.048Z,5.30
2022-08-16T08:09:01.900Z,5.00
2022-08-16T08:11:31.378Z,5.10
2022-08-16T08:14:06.810Z,5.20
2022-08-16T08:16:45.428Z,5.10
2022-08-16T08:19:22.987Z,5.00
2022-08-16T08:22:00.527Z,4.70
2022-08-16T08:24:50.672Z,5.50
2022-08-16T08:27:23.638Z,5.80
2022-08-16T08:30:50.166Z,5.30
2022-08-16T08:32:57.292Z,5.90
2022-08-16T08:35:29.408Z,5.60
2022-08-16T08:38:00.210Z,5.60
2022-08-16T08:40:32.507Z,5.20
2022-08-16T08:43:12.343Z,5.90
2022-08-16T08:45:58.062Z,5.40
2022-08-16T08:48:33.977Z,5.80
2022-08-16T08:51:10.361Z,6.20
2022-08-16T08:53:57.625Z,6.00
2022-08-16T08:56:32.558Z,6.40
2022-08-16T08:59:42.489Z,5.80
2022-08-16T09:02:19.552Z,6.60
2022-08-16T09:04:53.294Z,6.00
2022-08-16T09:07:25.899Z,6.80
2022-08-16T09:10:06.144Z,6.50
2022-08-16T09:12:38.627Z,6.10
2022-08-16T09:15:13.903Z,7.00
2022-08-16T09:17:51.409Z,7.00
2022-08-16T09:20:26.192Z,6.70
2022-08-16T09:22:56.872Z,6.90
2022-08-16T09:25:33.746Z,6.20
2022-08-16T09:28:09.258Z,6.20
2022-08-16T09:30:47.398Z,9.80
2022-08-16T09:33:19.932Z,7.00
2022-08-16T09:35:53.337Z,8.00
2022-08-16T09:38:31.803Z,6.40
2022-08-16T09:41:04.928Z,7.60
2022-08-16T09:43:58.689Z,6.80
2022-08-16T09:46:44.738Z,6.10
2022-08-16T09:49:14.450Z,6.30
2022-08-16T09:51:44.263Z,6.20
2022-08-16T09:54:16.682Z,5.90
2022-08-16T09:56:52.319Z,5.20
2022-08-16T09:59:25.208Z,6.10
2022-08-16T10:01:55.093Z,5.60
2022-08-16T10:07:14.715Z,6.50
2022-08-16T10:09:55.833Z,5.80
2022-08-16T10:12:46.781Z,6.00
2022-08-16T10:15:30.248Z,6.00
2022-08-16T10:18:02.518Z,12.20
2022-08-16T10:20:50.190Z,6.30
2022-08-16T10:23:19.467Z,6.20
2022-08-16T10:27:19.263Z,6.40
2022-08-16T10:28:40.282Z,6.00
2022-08-16T10:31:16.953Z,6.40
2022-08-16T10:36:39.225Z,5.90
2022-08-16T10:39:09.218Z,5.70
2022-08-16T10:41:37.874Z,5.60
2022-08-16T10:44:09.669Z,6.50
2022-08-16T10:46:42.226Z,5.80
2022-08-16T10:49:12.542Z,5.80
2022-08-16T10:52:02.977Z,6.30
2022-08-16T10:54:58.370Z,6.70
2022-08-16T10:57:25.002Z,5.50
2022-08-16T11:00:04.791Z,6.00
2022-08-16T11:02:59.863Z,5.50
2022-08-16T11:05:23.374Z,6.70
2022-08-16T11:07:53.942Z,6.90
2022-08-16T11:19:12.284Z,5.60
2022-08-16T11:24:42.039Z,6.50
2022-08-16T11:27:19.401Z,6.90
2022-08-16T11:29:55.579Z,5.90
2022-08-16T11:32:31.986Z,5.80
2022-08-16T11:35:14.082Z,6.40
2022-08-16T11:38:47.162Z,5.70
2022-08-16T11:43:38.806Z,7.40
2022-08-16T11:46:43.196Z,5.80
2022-08-16T11:49:01.885Z,6.60
2022-08-16T11:51:30.640Z,6.20
2022-08-16T11:53:59.278Z,6.30
2022-08-16T11:56:51.658Z,6.40
2022-08-16T11:59:19.628Z,6.30
2022-08-16T12:01:59.425Z,6.30
2022-08-16T12:04:30.140Z,6.40
2022-08-16T12:09:30.971Z,5.60
2022-08-16T12:12:02.963Z,6.00
2022-08-16T12:14:35.479Z,5.30
2022-08-16T12:17:08.147Z,5.50
2022-08-16T12:19:38.736Z,5.00
2022-08-16T12:22:18.907Z,5.30
2022-08-16T12:24:52.018Z,5.80
2022-08-16T12:27:24.422Z,5.80
2022-08-16T12:29:54.805Z,5.50
2022-08-16T12:32:39.376Z,5.10
2022-08-16T12:35:14.897Z,5.40
2022-08-16T12:37:47.215Z,5.40
2022-08-16T12:40:24.799Z,5.40
2022-08-16T12:43:02.719Z,7.10
2022-08-16T12:45:35.668Z,5.80
2022-08-16T12:48:34.145Z,6.10
2022-08-16T12:51:20.029Z,7.30
2022-08-16T12:53:56.235Z,7.10
2022-08-16T12:56:29.741Z,6.10
2022-08-16T12:58:59.522Z,5.60
2022-08-16T13:01:33.973Z,6.70
2022-08-16T13:04:21.012Z,5.80
2022-08-16T13:06:52.566Z,6.00
2022-08-16T13:09:28.967Z,6.10
2022-08-16T13:12:16.277Z,6.20
2022-08-16T13:14:46.510Z,7.70
2022-08-16T13:17:21.067Z,5.70
2022-08-16T13:20:09.456Z,5.90
2022-08-16T13:22:47.624Z,6.30
2022-08-16T13:25:20.961Z,6.80
2022-08-16T13:28:02.368Z,6.20
2022-08-16T13:30:56.702Z,25.70
2022-08-16T13:33:30.839Z,7.50
2022-08-16T13:36:01.214Z,6.00
2022-08-16T13:38:37.650Z,5.50
2022-08-16T13:41:10.191Z,6.00
2022-08-16T13:43:40.329Z,6.20
2022-08-16T13:46:09.137Z,6.00
2022-08-16T13:48:44.440Z,7.00
2022-08-16T13:51:20.130Z,5.90
2022-08-16T13:53:59.703Z,5.80
2022-08-16T13:56:38.042Z,11.10
2022-08-16T13:59:19.571Z,6.20
2022-08-16T14:01:54.435Z,5.50
2022-08-16T14:04:28.071Z,5.80
2022-08-16T14:06:59.564Z,6.90
2022-08-16T14:09:30.665Z,6.20
2022-08-16T14:12:04.427Z,5.80
2022-08-16T14:14:38.830Z,5.80
2022-08-16T14:17:09.713Z,6.20
2022-08-16T14:19:44.861Z,6.50
2022-08-16T14:22:31.203Z,6.00
2022-08-16T14:25:07.228Z,5.80
2022-08-16T14:27:42.192Z,5.50
2022-08-16T14:30:15.311Z,5.80
2022-08-16T14:32:46.606Z,6.40
2022-08-16T14:35:36.704Z,5.60
2022-08-16T14:38:18.621Z,5.50
2022-08-16T14:40:54.786Z,5.40
2022-08-16T14:43:29.698Z,5.80
2022-08-16T14:46:11.068Z,5.10
2022-08-16T14:48:40.193Z,5.00
2022-08-16T14:51:08.934Z,5.00
2022-08-16T14:53:38.582Z,5.00
2022-08-16T14:56:17.344Z,5.20
2022-08-16T14:59:02.874Z,5.40
2022-08-16T15:01:57.623Z,6.20
2022-08-16T15:04:39.849Z,7.90
2022-08-16T15:10:00.463Z,6.50
2022-08-16T15:12:33.615Z,6.00
2022-08-16T15:15:12.297Z,5.20
2022-08-16T15:17:54.516Z,5.10
2022-08-16T15:20:29.457Z,5.70
2022-08-16T15:23:01.967Z,5.30
2022-08-16T15:25:41.386Z,5.20
2022-08-16T15:28:24.042Z,7.70
2022-08-16T15:31:03.016Z,5.90
2022-08-16T15:33:38.949Z,6.00
2022-08-16T15:36:18.408Z,5.90
2022-08-16T15:39:02.271Z,5.50
2022-08-16T15:41:43.162Z,5.80
2022-08-16T15:44:22.445Z,4.90
2022-08-16T15:46:54.639Z,4.80
2022-08-16T15:49:32.907Z,5.70
2022-08-16T15:52:15.050Z,8.10
2022-08-16T15:54:53.372Z,5.50
2022-08-16T15:59:56.478Z,6.10
2022-08-16T16:02:41.047Z,4.90
2022-08-16T16:05:10.851Z,5.70
2022-08-16T16:07:45.121Z,5.40
2022-08-16T16:10:29.723Z,5.20
2022-08-16T16:13:02.069Z,5.40
2022-08-16T16:15:36.011Z,5.40
2022-08-16T16:18:09.923Z,5.90
2022-08-16T16:20:47.896Z,5.70
2022-08-16T16:23:23.561Z,5.30
2022-08-16T16:25:54.201Z,5.60
2022-08-16T16:29:05.394Z,5.70
2022-08-16T16:31:17.272Z,5.20
2022-08-16T16:33:50.242Z,5.10
2022-08-16T16:36:25.470Z,5.50
2022-08-16T16:38:57.655Z,5.20
2022-08-16T16:41:28.681Z,5.10
2022-08-16T16:44:01.568Z,5.90
2022-08-16T16:46:42.606Z,6.50
2022-08-16T16:49:14.502Z,6.10
2022-08-16T16:51:49.832Z,5.90
2022-08-16T16:54:27.437Z,5.70
2022-08-16T16:56:58.679Z,5.60
2022-08-16T16:59:28.718Z,6.70
2022-08-16T17:02:41.332Z,5.50
2022-08-16T17:05:15.802Z,5.80
2022-08-16T17:08:10.072Z,6.60
2022-08-16T17:11:14.933Z,8.10
2022-08-16T17:14:33.069Z,9.40
2022-08-16T17:17:22.791Z,11.10
2022-08-16T17:20:22.692Z,10.10
2022-08-16T17:23:12.531Z,7.60
2022-08-16T17:26:10.373Z,7.80
2022-08-16T17:29:11.238Z,5.60
2022-08-16T17:32:47.412Z,6.00
2022-08-16T17:35:20.623Z,6.70
2022-08-16T17:38:38.900Z,6.20
2022-08-16T17:41:21.867Z,6.10
2022-08-16T17:43:50.653Z,7.20
2022-08-16T17:46:41.317Z,6.20
2022-08-16T17:49:10.157Z,7.50
2022-08-16T17:51:38.795Z,7.00
2022-08-16T17:54:07.595Z,7.10
2022-08-16T17:56:48.473Z,7.30
2022-08-16T17:59:17.272Z,6.10
2022-08-16T18:01:46.641Z,6.90
2022-08-16T18:04:48.666Z,6.70
2022-08-16T18:07:05.816Z,10.90
2022-08-16T18:12:44.516Z,12.10
2022-08-16T18:15:06.924Z,14.50
2022-08-16T18:17:35.857Z,9.60
2022-08-16T18:20:33.097Z,8.50
2022-08-16T18:23:12.305Z,11.20
2022-08-16T18:25:50.784Z,9.40
2022-08-16T18:28:20.213Z,8.40
2022-08-16T18:30:52.048Z,9.60
2022-08-16T18:33:24.463Z,8.30
2022-08-16T18:35:57.576Z,9.60
2022-08-16T18:38:27.153Z,9.80
2022-08-16T18:40:56.148Z,12.20
2022-08-16T18:44:23.685Z,12.10
2022-08-16T18:46:16.929Z,9.10
2022-08-16T18:48:45.852Z,8.60
2022-08-16T18:51:20.276Z,12.60
2022-08-16T18:53:53.774Z,9.50
2022-08-16T18:56:22.431Z,8.70
2022-08-16T18:58:51.333Z,8.80
2022-08-16T19:01:20.333Z,10.40
2022-08-16T19:03:48.890Z,9.80
2022-08-16T19:06:17.759Z,8.10
2022-08-16T19:08:46.533Z,8.30
2022-08-16T19:11:22.036Z,8.10
2022-08-16T19:13:50.812Z,7.90
2022-08-16T19:16:21.803Z,7.70
2022-08-16T19:18:50.630Z,8.20
2022-08-16T19:21:19.669Z,8.40
2022-08-16T19:23:48.804Z,7.90
2022-08-16T19:26:25.575Z,9.10
2022-08-16T19:28:58.758Z,8.60
2022-08-16T19:31:33.116Z,9.10
2022-08-16T19:34:04.242Z,8.90
2022-08-16T19:36:37.404Z,9.40
2022-08-16T19:39:14.075Z,9.20
2022-08-16T19:41:53.766Z,12.40
2022-08-16T19:46:52.187Z,10.40
2022-08-16T19:49:20.705Z,11.30
2022-08-16T19:51:49.711Z,11.00
2022-08-16T19:54:19.071Z,9.70
2022-08-16T19:56:47.569Z,10.30
2022-08-16T19:59:19.436Z,10.50
2022-08-16T20:01:52.908Z,10.20
2022-08-16T20:04:22.998Z,10.10
2022-08-16T20:06:53.765Z,11.00
2022-08-16T20:09:23.580Z,10.30
2022-08-16T20:14:25.204Z,10.70
2022-08-16T20:16:57.519Z,10.40
2022-08-16T20:19:28.390Z,11.30
2022-08-16T20:22:01.870Z,10.00
2022-08-16T20:24:35.046Z,9.90
2022-08-16T20:27:07.861Z,11.50
2022-08-16T20:29:38.601Z,11.90
2022-08-16T20:32:10.071Z,9.30
2022-08-16T20:34:42.017Z,10.00
2022-08-16T20:37:13.354Z,9.80
2022-08-16T20:39:46.747Z,10.20
2022-08-16T20:42:18.410Z,9.90
2022-08-16T20:44:48.822Z,9.50
2022-08-16T20:47:17.347Z,10.20
2022-08-16T20:49:46.343Z,9.30
2022-08-16T20:52:19.976Z,9.20
2022-08-16T20:54:49.098Z,8.60
2022-08-16T20:57:18.131Z,8.80
2022-08-16T20:59:50.188Z,9.40
2022-08-16T21:02:25.831Z,8.90
2022-08-16T21:04:55.508Z,9.20
2022-08-16T21:07:24.705Z,9.20
2022-08-16T21:09:53.260Z,8.70
2022-08-16T21:12:22.191Z,8.90
2022-08-16T21:14:51.165Z,9.40
2022-08-16T21:17:19.872Z,9.40
2022-08-16T21:19:48.659Z,9.50
2022-08-16T21:22:21.907Z,9.30
2022-08-16T21:24:53.880Z,8.90
2022-08-16T21:27:24.416Z,9.30
2022-08-16T21:29:54.695Z,9.50
2022-08-16T21:32:34.934Z,9.50
2022-08-16T21:35:07.482Z,9.40
2022-08-16T21:37:36.397Z,9.30
2022-08-16T21:40:08.401Z,9.40
2022-08-16T21:42:38.195Z,10.10
2022-08-16T21:45:14.421Z,9.50
2022-08-16T21:47:44.277Z,9.20
2022-08-16T21:50:14.512Z,9.40
2022-08-16T21:52:43.364Z,10.00
2022-08-16T21:55:12.544Z,10.00
2022-08-16T21:57:41.396Z,9.80
2022-08-16T22:00:15.247Z,9.80
2022-08-16T22:02:49.115Z,10.20
2022-08-16T22:05:19.959Z,9.10
2022-08-16T22:07:49.019Z,9.60
2022-08-16T22:11:05.151Z,10.40
2022-08-16T22:13:17.092Z,9.70
2022-08-16T22:15:46.712Z,9.40
2022-08-16T22:18:17.571Z,9.90
2022-08-16T22:20:47.787Z,9.70
2022-08-16T22:25:48.432Z,9.70
2022-08-16T22:28:18.505Z,8.90
2022-08-16T22:30:48.958Z,9.60
2022-08-16T22:33:25.455Z,8.80
2022-08-16T22:35:58.593Z,8.90
2022-08-16T22:38:56.086Z,9.70
2022-08-16T22:41:17.921Z,9.50
2022-08-16T22:43:50.552Z,8.90
2022-08-16T22:46:19.863Z,9.80
2022-08-16T22:48:51.208Z,9.20
2022-08-16T22:51:21.946Z,8.50
2022-08-16T22:53:51.695Z,9.00
2022-08-16T22:56:22.279Z,9.50
2022-08-16T22:58:51.379Z,8.70
2022-08-16T23:01:22.705Z,9.40
2022-08-16T23:03:52.052Z,10.00
2022-08-16T23:06:21.507Z,8.90
2022-08-16T23:08:51.072Z,8.90
2022-08-16T23:11:23.918Z,9.80
2022-08-16T23:13:57.655Z,10.10
2022-08-16T23:21:48.419Z,9.40
2022-08-16T23:24:20.853Z,9.20
2022-08-16T23:26:49.886Z,10.10
2022-08-16T23:29:26.301Z,9.30
2022-08-16T23:31:59.824Z,8.70
2022-08-16T23:34:29.184Z,9.60
2022-08-16T23:36:58.142Z,9.70
2022-08-16T23:39:27.354Z,9.10
2022-08-16T23:41:56.378Z,9.30
2022-08-16T23:44:57.361Z,9.00
2022-08-16T23:47:14.461Z,9.60
2022-08-16T23:50:01.062Z,9.50
2022-08-16T23:52:54.739Z,8.60
2022-08-16T23:55:20.676Z,9.90
2022-08-16T23:57:49.910Z,9.30
